CSZ124 RJFK-RJTT
Flight info
| Callsign | CSZ124 |
|---|---|
| Flight time | N/A |
| Altitude | 41000 |
| Route | MIDAI M750 BILLY Y21 AKSEL |
| Aircraft | A333/H-SDE3GHIJ2J3J5M1RVWXY/LB2D1 |
Departure
| Time | 2026-04-22 14:22 |
|---|---|
| Airport | Kagoshima Airport (RJFK) |
Arrival
| Time | N/A |
|---|---|
| Airport | Tokyo Haneda International Airport (RJTT) |
| Time | Latitude | Longitude | Altitude | Speed | Heading |
|---|---|---|---|---|---|
| 2026-04-22 13:41 | 31.80178 | 130.71671 | 905 ft | 0 kts | 240° |
| 2026-04-22 14:08 | 31.80183 | 130.71682 | 906 ft | 3 kts | 240° |
| 2026-04-22 14:09 | 31.80192 | 130.71700 | 907 ft | 2 kts | 240° |
| 2026-04-22 14:09 | 31.80200 | 130.71717 | 908 ft | 2 kts | 243° |
| 2026-04-22 14:09 | 31.80208 | 130.71734 | 911 ft | 3 kts | 249° |
| 2026-04-22 14:09 | 31.80214 | 130.71751 | 910 ft | 2 kts | 250° |
| 2026-04-22 14:10 | 31.80219 | 130.71768 | 911 ft | 2 kts | 265° |
| 2026-04-22 14:10 | 31.80218 | 130.71788 | 914 ft | 2 kts | 304° |
| 2026-04-22 14:10 | 31.80212 | 130.71797 | 913 ft | 1 kts | 328° |
| 2026-04-22 14:10 | 31.80212 | 130.71798 | 913 ft | 0 kts | 329° |
| 2026-04-22 14:12 | 31.80210 | 130.71799 | 912 ft | 2 kts | 333° |
| 2026-04-22 14:12 | 31.80214 | 130.71797 | 916 ft | 4 kts | 336° |
| 2026-04-22 14:12 | 31.80253 | 130.71768 | 910 ft | 7 kts | 327° |
| 2026-04-22 14:13 | 31.80313 | 130.71724 | 910 ft | 13 kts | 330° |
| 2026-04-22 14:13 | 31.80388 | 130.71672 | 909 ft | 12 kts | 329° |
| 2026-04-22 14:13 | 31.80460 | 130.71625 | 909 ft | 11 kts | 332° |
| 2026-04-22 14:13 | 31.80524 | 130.71584 | 910 ft | 10 kts | 331° |
| 2026-04-22 14:14 | 31.80578 | 130.71549 | 910 ft | 8 kts | 330° |
| 2026-04-22 14:14 | 31.80622 | 130.71519 | 911 ft | 7 kts | 330° |
| 2026-04-22 14:14 | 31.80659 | 130.71493 | 911 ft | 6 kts | 329° |
| 2026-04-22 14:14 | 31.80688 | 130.71474 | 911 ft | 4 kts | 330° |
| 2026-04-22 14:15 | 31.80709 | 130.71460 | 912 ft | 5 kts | 329° |
| 2026-04-22 14:15 | 31.80745 | 130.71435 | 913 ft | 8 kts | 329° |
| 2026-04-22 14:15 | 31.80784 | 130.71409 | 915 ft | 5 kts | 330° |
| 2026-04-22 14:15 | 31.80821 | 130.71384 | 916 ft | 8 kts | 330° |
| 2026-04-22 14:16 | 31.80863 | 130.71357 | 916 ft | 6 kts | 330° |
| 2026-04-22 14:16 | 31.80899 | 130.71332 | 917 ft | 6 kts | 328° |
| 2026-04-22 14:16 | 31.80957 | 130.71291 | 917 ft | 12 kts | 329° |
| 2026-04-22 14:16 | 31.81022 | 130.71246 | 923 ft | 9 kts | 329° |
| 2026-04-22 14:17 | 31.81067 | 130.71215 | 924 ft | 7 kts | 330° |
| 2026-04-22 14:17 | 31.81102 | 130.71192 | 927 ft | 5 kts | 330° |
| 2026-04-22 14:17 | 31.81131 | 130.71172 | 927 ft | 6 kts | 329° |
| 2026-04-22 14:17 | 31.81173 | 130.71143 | 925 ft | 7 kts | 329° |
| 2026-04-22 14:18 | 31.81216 | 130.71112 | 924 ft | 7 kts | 329° |
| 2026-04-22 14:18 | 31.81255 | 130.71086 | 925 ft | 6 kts | 330° |
| 2026-04-22 14:18 | 31.81299 | 130.71056 | 926 ft | 10 kts | 330° |
| 2026-04-22 14:18 | 31.81358 | 130.71016 | 923 ft | 9 kts | 331° |
| 2026-04-22 14:19 | 31.81418 | 130.71002 | 919 ft | 9 kts | 8° |
| 2026-04-22 14:19 | 31.81461 | 130.71029 | 918 ft | 2 kts | 45° |
| 2026-04-22 14:19 | 31.81470 | 130.71045 | 916 ft | 2 kts | 60° |
| 2026-04-22 14:19 | 31.81474 | 130.71062 | 916 ft | 5 kts | 77° |
| 2026-04-22 14:20 | 31.81456 | 130.71148 | 918 ft | 4 kts | 116° |
| 2026-04-22 14:20 | 31.81439 | 130.71177 | 918 ft | 6 kts | 128° |
| 2026-04-22 14:20 | 31.81391 | 130.71225 | 918 ft | 12 kts | 147° |
| 2026-04-22 14:21 | 31.81061 | 130.71449 | 916 ft | 78 kts | 149° |
| 2026-04-22 14:21 | 31.80351 | 130.71929 | 922 ft | 156 kts | 150° |
| 2026-04-22 14:22 | 31.77981 | 130.73530 | 2005 ft | 217 kts | 142° |
| 2026-04-22 14:22 | 31.76726 | 130.74582 | 2839 ft | 227 kts | 152° |
| 2026-04-22 14:22 | 31.73411 | 130.75391 | 4295 ft | 252 kts | 170° |
| 2026-04-22 14:23 | 31.71685 | 130.75788 | 5252 ft | 254 kts | 170° |
| 2026-04-22 14:23 | 31.69971 | 130.76271 | 6274 ft | 253 kts | 169° |
| 2026-04-22 14:23 | 31.68258 | 130.76821 | 7137 ft | 258 kts | 168° |
| 2026-04-22 14:23 | 31.66515 | 130.77415 | 7985 ft | 264 kts | 168° |
| 2026-04-22 14:24 | 31.64737 | 130.78040 | 8871 ft | 269 kts | 168° |
| 2026-04-22 14:24 | 31.62975 | 130.78791 | 9735 ft | 281 kts | 156° |
| 2026-04-22 14:24 | 31.61533 | 130.80438 | 10389 ft | 307 kts | 127° |
| 2026-04-22 14:24 | 31.60809 | 130.82927 | 10677 ft | 342 kts | 99° |
| 2026-04-22 14:25 | 31.60937 | 130.85812 | 11091 ft | 364 kts | 85° |
| 2026-04-22 14:25 | 31.61218 | 130.88790 | 11769 ft | 371 kts | 87° |
| 2026-04-22 14:25 | 31.61384 | 130.91837 | 12524 ft | 377 kts | 89° |
| 2026-04-22 14:25 | 31.61451 | 130.94937 | 13243 ft | 384 kts | 91° |
| 2026-04-22 14:26 | 31.61454 | 130.98097 | 13925 ft | 391 kts | 91° |
| 2026-04-22 14:26 | 31.61418 | 131.01317 | 14543 ft | 397 kts | 92° |
| 2026-04-22 14:26 | 31.61360 | 131.04565 | 15276 ft | 400 kts | 93° |
| 2026-04-22 14:26 | 31.61290 | 131.07842 | 15971 ft | 404 kts | 93° |
| 2026-04-22 14:27 | 31.61214 | 131.11156 | 16648 ft | 409 kts | 93° |
| 2026-04-22 14:27 | 31.61133 | 131.14511 | 17307 ft | 414 kts | 94° |
| 2026-04-22 14:27 | 31.61049 | 131.17884 | 17933 ft | 420 kts | 94° |
| 2026-04-22 14:27 | 31.60959 | 131.21331 | 18580 ft | 424 kts | 94° |
| 2026-04-22 14:28 | 31.60866 | 131.24812 | 19130 ft | 429 kts | 94° |
| 2026-04-22 14:28 | 31.60775 | 131.28324 | 19739 ft | 432 kts | 93° |
| 2026-04-22 14:28 | 31.60693 | 131.31865 | 20302 ft | 437 kts | 92° |
| 2026-04-22 14:28 | 31.60898 | 131.35439 | 20826 ft | 442 kts | 81° |
| 2026-04-22 14:29 | 31.61725 | 131.38921 | 21361 ft | 445 kts | 66° |
| 2026-04-22 14:29 | 31.63058 | 131.42195 | 21946 ft | 446 kts | 60° |
| 2026-04-22 14:29 | 31.64580 | 131.45371 | 22493 ft | 448 kts | 57° |
| 2026-04-22 14:29 | 31.66199 | 131.48506 | 23008 ft | 451 kts | 56° |
| 2026-04-22 14:30 | 31.67856 | 131.51632 | 23765 ft | 440 kts | 55° |
| 2026-04-22 14:30 | 31.69284 | 131.54360 | 26479 ft | 365 kts | 55° |
| 2026-04-22 14:30 | 31.70636 | 131.56952 | 26750 ft | 378 kts | 55° |
| 2026-04-22 14:30 | 31.72042 | 131.59623 | 26912 ft | 391 kts | 55° |
| 2026-04-22 14:31 | 31.73489 | 131.62386 | 27084 ft | 403 kts | 55° |
| 2026-04-22 14:31 | 31.74966 | 131.65238 | 27262 ft | 415 kts | 56° |
| 2026-04-22 14:31 | 31.76477 | 131.68184 | 27422 ft | 426 kts | 56° |
| 2026-04-22 14:31 | 31.78019 | 131.71213 | 27597 ft | 437 kts | 56° |
| 2026-04-22 14:32 | 31.79574 | 131.74279 | 27752 ft | 448 kts | 57° |
| 2026-04-22 14:32 | 31.81187 | 131.77465 | 27903 ft | 458 kts | 57° |
| 2026-04-22 14:32 | 31.82831 | 131.80718 | 28052 ft | 468 kts | 57° |
| 2026-04-22 14:32 | 31.84511 | 131.84042 | 28229 ft | 477 kts | 57° |
| 2026-04-22 14:33 | 31.86222 | 131.87429 | 28409 ft | 486 kts | 57° |
| 2026-04-22 14:33 | 31.87957 | 131.90866 | 28688 ft | 491 kts | 57° |
| 2026-04-22 14:33 | 31.89713 | 131.94346 | 29027 ft | 495 kts | 57° |
| 2026-04-22 14:33 | 31.91475 | 131.97840 | 29408 ft | 499 kts | 57° |
| 2026-04-22 14:34 | 31.93249 | 132.01359 | 29787 ft | 501 kts | 57° |
| 2026-04-22 14:34 | 31.95032 | 132.04898 | 30140 ft | 504 kts | 57° |
| 2026-04-22 14:34 | 31.96827 | 132.08463 | 30396 ft | 508 kts | 57° |
| 2026-04-22 14:34 | 31.98635 | 132.12055 | 30663 ft | 512 kts | 57° |
| 2026-04-22 14:35 | 32.00456 | 132.15677 | 30978 ft | 515 kts | 57° |
| 2026-04-22 14:35 | 32.02287 | 132.19322 | 31297 ft | 518 kts | 57° |
| 2026-04-22 14:35 | 32.04125 | 132.22985 | 31636 ft | 519 kts | 57° |
| 2026-04-22 14:35 | 32.05968 | 132.26662 | 31970 ft | 522 kts | 57° |
| 2026-04-22 14:36 | 32.07818 | 132.30355 | 32251 ft | 526 kts | 57° |
| 2026-04-22 14:36 | 32.09686 | 132.34085 | 32518 ft | 530 kts | 57° |
| 2026-04-22 14:36 | 32.11556 | 132.37828 | 32912 ft | 529 kts | 57° |
| 2026-04-22 14:36 | 32.12775 | 132.40320 | 33197 ft | 530 kts | 58° |
| 2026-04-22 14:37 | 32.15079 | 132.45465 | 33784 ft | 529 kts | 60° |
| 2026-04-22 14:37 | 32.16699 | 132.49305 | 34146 ft | 530 kts | 61° |
| 2026-04-22 14:37 | 32.18320 | 132.53214 | 34474 ft | 531 kts | 61° |
| 2026-04-22 14:37 | 32.19418 | 132.55867 | 34626 ft | 533 kts | 61° |
| 2026-04-22 14:38 | 32.21580 | 132.61071 | 35059 ft | 533 kts | 61° |
| 2026-04-22 14:38 | 32.22686 | 132.63719 | 35341 ft | 531 kts | 60° |
| 2026-04-22 14:38 | 32.24322 | 132.67619 | 35731 ft | 529 kts | 60° |
| 2026-04-22 14:38 | 32.25960 | 132.71510 | 36104 ft | 528 kts | 60° |
| 2026-04-22 14:39 | 32.27573 | 132.75336 | 36444 ft | 527 kts | 60° |
| 2026-04-22 14:39 | 32.29209 | 132.79216 | 36763 ft | 527 kts | 60° |
| 2026-04-22 14:39 | 32.30843 | 132.83094 | 37074 ft | 527 kts | 60° |
| 2026-04-22 14:40 | 32.34100 | 132.90841 | 37762 ft | 525 kts | 60° |
| 2026-04-22 14:40 | 32.35722 | 132.94706 | 38074 ft | 524 kts | 60° |
| 2026-04-22 14:40 | 32.37339 | 132.98567 | 38388 ft | 523 kts | 60° |
| 2026-04-22 14:40 | 32.38955 | 133.02428 | 38613 ft | 526 kts | 60° |
| 2026-04-22 14:41 | 32.40577 | 133.06303 | 38827 ft | 526 kts | 60° |
| 2026-04-22 14:41 | 32.42197 | 133.10184 | 39112 ft | 524 kts | 60° |
| 2026-04-22 14:41 | 32.43807 | 133.14045 | 39371 ft | 523 kts | 59° |
| 2026-04-22 14:41 | 32.45415 | 133.17906 | 39600 ft | 522 kts | 59° |
| 2026-04-22 14:42 | 32.47020 | 133.21763 | 39827 ft | 522 kts | 59° |
| 2026-04-22 14:42 | 32.48624 | 133.25621 | 40052 ft | 521 kts | 59° |
| 2026-04-22 14:42 | 32.50222 | 133.29470 | 40293 ft | 521 kts | 59° |
| 2026-04-22 14:42 | 32.51818 | 133.33319 | 40511 ft | 520 kts | 59° |
| 2026-04-22 14:43 | 32.53412 | 133.37164 | 40707 ft | 520 kts | 59° |
| 2026-04-22 14:43 | 32.55005 | 133.41012 | 40923 ft | 520 kts | 59° |
| 2026-04-22 14:43 | 32.58207 | 133.48755 | 40992 ft | 526 kts | 59° |
| 2026-04-22 14:44 | 32.61398 | 133.56495 | 40979 ft | 525 kts | 59° |
| 2026-04-22 14:44 | 32.64601 | 133.64285 | 40975 ft | 525 kts | 59° |
| 2026-04-22 14:45 | 32.67798 | 133.72075 | 40994 ft | 525 kts | 59° |
| 2026-04-22 14:45 | 32.70990 | 133.79869 | 40988 ft | 525 kts | 59° |
| 2026-04-22 14:46 | 32.74184 | 133.87682 | 40990 ft | 525 kts | 59° |
| 2026-04-22 14:46 | 32.77370 | 133.95494 | 41003 ft | 525 kts | 59° |
| 2026-04-22 14:47 | 32.80553 | 134.03317 | 40983 ft | 526 kts | 59° |
| 2026-04-22 14:47 | 32.83197 | 134.11468 | 40994 ft | 531 kts | 68° |
| 2026-04-22 14:48 | 32.85375 | 134.19883 | 41007 ft | 533 kts | 70° |
| 2026-04-22 14:48 | 32.87466 | 134.28364 | 40994 ft | 535 kts | 70° |
| 2026-04-22 14:49 | 32.89554 | 134.36866 | 40993 ft | 535 kts | 70° |
| 2026-04-22 14:49 | 32.91652 | 134.45369 | 41025 ft | 535 kts | 70° |
| 2026-04-22 14:50 | 32.93739 | 134.53825 | 41014 ft | 537 kts | 70° |
| 2026-04-22 14:50 | 32.95839 | 134.62351 | 40993 ft | 537 kts | 70° |
| 2026-04-22 14:51 | 32.97932 | 134.70884 | 41011 ft | 536 kts | 70° |
| 2026-04-22 14:51 | 33.00020 | 134.79424 | 41007 ft | 538 kts | 70° |
| 2026-04-22 14:52 | 33.02114 | 134.88009 | 41006 ft | 540 kts | 69° |
| 2026-04-22 14:52 | 33.04227 | 134.96606 | 41007 ft | 540 kts | 68° |
| 2026-04-22 14:53 | 33.06350 | 135.05197 | 40996 ft | 540 kts | 69° |
| 2026-04-22 14:53 | 33.08406 | 135.13731 | 41007 ft | 538 kts | 70° |
| 2026-04-22 14:54 | 33.10446 | 135.22324 | 41007 ft | 538 kts | 70° |
| 2026-04-22 14:54 | 33.12374 | 135.30952 | 41007 ft | 539 kts | 71° |
| 2026-04-22 14:55 | 33.14269 | 135.39617 | 41011 ft | 539 kts | 71° |
| 2026-04-22 14:55 | 33.16162 | 135.48265 | 41006 ft | 538 kts | 71° |
| 2026-04-22 14:56 | 33.18057 | 135.56906 | 41007 ft | 538 kts | 71° |
| 2026-04-22 14:56 | 33.19950 | 135.65553 | 41007 ft | 538 kts | 71° |
| 2026-04-22 14:57 | 33.21826 | 135.74149 | 41007 ft | 538 kts | 71° |
| 2026-04-22 14:57 | 33.23710 | 135.82816 | 41008 ft | 539 kts | 71° |
| 2026-04-22 14:58 | 33.25586 | 135.91486 | 41001 ft | 538 kts | 71° |
| 2026-04-22 14:58 | 33.27450 | 136.00132 | 41010 ft | 537 kts | 71° |
| 2026-04-22 14:59 | 33.29311 | 136.08785 | 41003 ft | 538 kts | 71° |
| 2026-04-22 14:59 | 33.31168 | 136.17450 | 41020 ft | 538 kts | 71° |
| 2026-04-22 15:00 | 33.33019 | 136.26125 | 41004 ft | 539 kts | 71° |
| 2026-04-22 15:00 | 33.34867 | 136.34813 | 41001 ft | 539 kts | 71° |
| 2026-04-22 15:01 | 33.36713 | 136.43532 | 41004 ft | 540 kts | 71° |
| 2026-04-22 15:01 | 33.38539 | 136.52186 | 41000 ft | 540 kts | 71° |
| 2026-04-22 15:02 | 33.40374 | 136.60914 | 41003 ft | 539 kts | 71° |
| 2026-04-22 15:02 | 33.42195 | 136.69613 | 41002 ft | 538 kts | 71° |
| 2026-04-22 15:03 | 33.44009 | 136.78304 | 41009 ft | 538 kts | 71° |
| 2026-04-22 15:03 | 33.45816 | 136.86997 | 41001 ft | 537 kts | 71° |
| 2026-04-22 15:04 | 33.47614 | 136.95677 | 41001 ft | 537 kts | 72° |
| 2026-04-22 15:04 | 33.49393 | 137.04301 | 41002 ft | 536 kts | 72° |
| 2026-04-22 15:05 | 33.51177 | 137.12982 | 41002 ft | 535 kts | 72° |
| 2026-04-22 15:05 | 33.52952 | 137.21650 | 40999 ft | 535 kts | 72° |
| 2026-04-22 15:06 | 33.54722 | 137.30326 | 40995 ft | 536 kts | 72° |
| 2026-04-22 15:06 | 33.56486 | 137.39006 | 41020 ft | 536 kts | 72° |
| 2026-04-22 15:07 | 33.58241 | 137.47679 | 40998 ft | 534 kts | 72° |
| 2026-04-22 15:07 | 33.59987 | 137.56338 | 40999 ft | 534 kts | 72° |
| 2026-04-22 15:08 | 33.62430 | 137.64568 | 40997 ft | 522 kts | 58° |
| 2026-04-22 15:08 | 33.65768 | 137.72275 | 41001 ft | 519 kts | 55° |
| 2026-04-22 15:09 | 33.69258 | 137.79847 | 41021 ft | 518 kts | 54° |
| 2026-04-22 15:09 | 33.72770 | 137.87431 | 41002 ft | 521 kts | 54° |
| 2026-04-22 15:10 | 33.76272 | 137.95074 | 41001 ft | 523 kts | 55° |
| 2026-04-22 15:10 | 33.79764 | 138.02749 | 41012 ft | 523 kts | 54° |
| 2026-04-22 15:11 | 33.83251 | 138.10436 | 40999 ft | 525 kts | 54° |
| 2026-04-22 15:11 | 33.86721 | 138.18100 | 41009 ft | 525 kts | 55° |
| 2026-04-22 15:12 | 33.90209 | 138.25822 | 41011 ft | 525 kts | 55° |
| 2026-04-22 15:12 | 33.93687 | 138.33573 | 41007 ft | 526 kts | 55° |
| 2026-04-22 15:13 | 33.97144 | 138.41345 | 41008 ft | 526 kts | 55° |
| 2026-04-22 15:13 | 34.00596 | 138.49126 | 41009 ft | 526 kts | 55° |
| 2026-04-22 15:14 | 34.04046 | 138.56914 | 41013 ft | 526 kts | 55° |
| 2026-04-22 15:14 | 34.07491 | 138.64704 | 41013 ft | 527 kts | 55° |
| 2026-04-22 15:15 | 34.10936 | 138.72511 | 41010 ft | 527 kts | 56° |
| 2026-04-22 15:15 | 34.14373 | 138.80318 | 41009 ft | 527 kts | 56° |
| 2026-04-22 15:16 | 34.17809 | 138.88140 | 41020 ft | 527 kts | 56° |
| 2026-04-22 15:16 | 34.21243 | 138.95972 | 41018 ft | 528 kts | 56° |
| 2026-04-22 15:17 | 34.24674 | 139.03819 | 41022 ft | 528 kts | 56° |
| 2026-04-22 15:17 | 34.28060 | 139.11637 | 41018 ft | 531 kts | 59° |
| 2026-04-22 15:18 | 34.31050 | 139.19843 | 41015 ft | 534 kts | 61° |
| 2026-04-22 15:18 | 34.33904 | 139.28137 | 41024 ft | 535 kts | 62° |
| 2026-04-22 15:19 | 34.36738 | 139.36456 | 41017 ft | 535 kts | 62° |
| 2026-04-22 15:19 | 34.39580 | 139.44775 | 41025 ft | 535 kts | 62° |
| 2026-04-22 15:20 | 34.42426 | 139.53090 | 41037 ft | 535 kts | 62° |
| 2026-04-22 15:20 | 34.45275 | 139.61427 | 41023 ft | 535 kts | 62° |
| 2026-04-22 15:21 | 34.48248 | 139.69666 | 41021 ft | 526 kts | 50° |
| 2026-04-22 15:21 | 34.50458 | 139.73071 | 41023 ft | 504 kts | 34° |
| 2026-04-22 15:21 | 34.53173 | 139.75589 | 41028 ft | 483 kts | 20° |
| 2026-04-22 15:22 | 34.59013 | 139.79572 | 41014 ft | 483 kts | 18° |
| 2026-04-22 15:22 | 34.64819 | 139.83651 | 41012 ft | 486 kts | 20° |
| 2026-04-22 15:23 | 34.70636 | 139.87879 | 41013 ft | 487 kts | 20° |
| 2026-04-22 15:23 | 34.76437 | 139.92144 | 41017 ft | 488 kts | 20° |
| 2026-04-22 15:24 | 34.79339 | 139.94386 | 40718 ft | 505 kts | 28° |
| 2026-04-22 15:24 | 34.81918 | 139.97427 | 39978 ft | 528 kts | 44° |
| 2026-04-22 15:24 | 34.83941 | 140.01241 | 38744 ft | 548 kts | 59° |
| 2026-04-22 15:24 | 34.85228 | 140.05676 | 37202 ft | 564 kts | 76° |
| 2026-04-22 15:25 | 34.85635 | 140.10437 | 35919 ft | 567 kts | 90° |
| 2026-04-22 15:25 | 34.85739 | 140.15218 | 34723 ft | 565 kts | 81° |
| 2026-04-22 15:25 | 34.86641 | 140.19841 | 33429 ft | 559 kts | 66° |
| 2026-04-22 15:25 | 34.88368 | 140.24018 | 32041 ft | 547 kts | 50° |
| 2026-04-22 15:26 | 34.90815 | 140.27405 | 31273 ft | 517 kts | 32° |
| 2026-04-22 15:26 | 34.93659 | 140.29822 | 30873 ft | 483 kts | 21° |
| 2026-04-22 15:26 | 34.95566 | 140.31098 | 30649 ft | 461 kts | 14° |
| 2026-04-22 15:26 | 34.98473 | 140.32170 | 30326 ft | 415 kts | 355° |
| 2026-04-22 15:27 | 35.02001 | 140.31814 | 29915 ft | 352 kts | 327° |
| 2026-04-22 15:27 | 35.03385 | 140.30969 | 29704 ft | 322 kts | 313° |
| 2026-04-22 15:27 | 35.04808 | 140.29108 | 29407 ft | 285 kts | 293° |
| 2026-04-22 15:27 | 35.05819 | 140.26304 | 28851 ft | 265 kts | 284° |
| 2026-04-22 15:28 | 35.06226 | 140.24886 | 28527 ft | 260 kts | 284° |
| 2026-04-22 15:28 | 35.06833 | 140.22812 | 28222 ft | 258 kts | 284° |
| 2026-04-22 15:28 | 35.07458 | 140.20797 | 28227 ft | 256 kts | 285° |
| 2026-04-22 15:28 | 35.08124 | 140.18782 | 28223 ft | 256 kts | 286° |
| 2026-04-22 15:29 | 35.08903 | 140.16812 | 28203 ft | 260 kts | 292° |
| 2026-04-22 15:29 | 35.09949 | 140.14983 | 28154 ft | 266 kts | 301° |
| 2026-04-22 15:29 | 35.11272 | 140.13363 | 28063 ft | 272 kts | 307° |
| 2026-04-22 15:30 | 35.14175 | 140.10356 | 27886 ft | 275 kts | 310° |
| 2026-04-22 15:30 | 35.15687 | 140.08924 | 27784 ft | 275 kts | 311° |
| 2026-04-22 15:30 | 35.17248 | 140.07539 | 27707 ft | 281 kts | 313° |
| 2026-04-22 15:30 | 35.18913 | 140.06132 | 27671 ft | 302 kts | 314° |
| 2026-04-22 15:31 | 35.20724 | 140.04660 | 27667 ft | 322 kts | 316° |
| 2026-04-22 15:31 | 35.22313 | 140.03416 | 27656 ft | 338 kts | 317° |
| 2026-04-22 15:31 | 35.24361 | 140.01853 | 27613 ft | 356 kts | 317° |
| 2026-04-22 15:31 | 35.26506 | 140.00187 | 27543 ft | 373 kts | 317° |
| 2026-04-22 15:32 | 35.28724 | 139.98435 | 27477 ft | 385 kts | 317° |
| 2026-04-22 15:32 | 35.30954 | 139.96661 | 27398 ft | 388 kts | 317° |
| 2026-04-22 15:32 | 35.33215 | 139.94858 | 27342 ft | 388 kts | 317° |
| 2026-04-22 15:32 | 35.35476 | 139.93057 | 27327 ft | 387 kts | 317° |
| 2026-04-22 15:33 | 35.37732 | 139.91261 | 27273 ft | 386 kts | 317° |
| 2026-04-22 15:33 | 35.39984 | 139.89469 | 27221 ft | 386 kts | 317° |
| 2026-04-22 15:33 | 35.42230 | 139.87682 | 27171 ft | 385 kts | 317° |
| 2026-04-22 15:33 | 35.44478 | 139.85894 | 27114 ft | 385 kts | 317° |
| 2026-04-22 15:34 | 35.46722 | 139.84108 | 26855 ft | 384 kts | 317° |
| 2026-04-22 15:34 | 35.65023 | 139.64274 | 26363 ft | 20283 kts | 318° |
| 2026-04-22 15:34 | 35.76705 | 139.51282 | 17389 ft | 380 kts | 308° |
| 2026-04-22 15:34 | 35.78644 | 139.49149 | 16838 ft | 366 kts | 311° |
| 2026-04-22 15:35 | 35.80490 | 139.47140 | 16534 ft | 341 kts | 311° |
| 2026-04-22 15:35 | 35.82254 | 139.45245 | 16547 ft | 335 kts | 311° |
| 2026-04-22 15:35 | 35.84015 | 139.43352 | 16550 ft | 337 kts | 311° |
| 2026-04-22 15:35 | 35.85785 | 139.41444 | 16551 ft | 339 kts | 311° |
| 2026-04-22 15:36 | 35.87533 | 139.39559 | 16541 ft | 0 kts | 311° |
| 2026-04-22 15:36 | 36.19608 | 139.03136 | 14907 ft | 335 kts | 307° |
| 2026-04-22 15:36 | 36.21162 | 139.01021 | 14908 ft | 329 kts | 307° |
| 2026-04-22 15:36 | 36.22700 | 138.98958 | 14916 ft | 324 kts | 307° |
| 2026-04-22 15:37 | 36.24014 | 138.97201 | 14916 ft | 0 kts | 307° |
| 2026-04-22 15:37 | 35.88270 | 138.63806 | 14923 ft | 321 kts | 300° |
| 2026-04-22 15:37 | 35.89457 | 138.61846 | 14933 ft | 0 kts | 301° |
| 2026-04-22 15:37 | 35.72650 | 138.69114 | 14971 ft | 323 kts | 296° |
| 2026-04-22 15:38 | 35.73806 | 138.66744 | 14970 ft | 320 kts | 294° |
| 2026-04-22 15:38 | 35.75086 | 138.61644 | 14965 ft | 310 kts | 271° |
| 2026-04-22 15:38 | 35.74895 | 138.59058 | 14961 ft | 308 kts | 256° |
| 2026-04-22 15:39 | 35.74065 | 138.56627 | 14970 ft | 310 kts | 242° |
| 2026-04-22 15:39 | 35.62319 | 138.32540 | 14992 ft | 310 kts | 240° |
| 2026-04-22 15:39 | 35.54991 | 138.22172 | 15008 ft | 313 kts | 232° |
| 2026-04-22 15:39 | 35.53354 | 138.20367 | 14908 ft | 315 kts | 226° |
| 2026-04-22 15:40 | 35.50442 | 138.16408 | 14855 ft | 5307 kts | 230° |
| 2026-04-22 15:40 | 35.33783 | 137.92094 | 14931 ft | 312 kts | 239° |
| 2026-04-22 15:40 | 35.32917 | 137.89679 | 14934 ft | 309 kts | 249° |
| 2026-04-22 15:40 | 35.31995 | 137.87308 | 14929 ft | 309 kts | 243° |
| 2026-04-22 15:41 | 35.30915 | 137.85031 | 14924 ft | 309 kts | 239° |
| 2026-04-22 15:41 | 35.16691 | 137.56470 | 14906 ft | 309 kts | 239° |
| 2026-04-22 15:41 | 35.15365 | 137.54396 | 14923 ft | 313 kts | 222° |
| 2026-04-22 15:41 | 35.13580 | 137.52895 | 14925 ft | 310 kts | 219° |
| 2026-04-22 15:42 | 34.97387 | 137.31375 | 14903 ft | 308 kts | 225° |
| 2026-04-22 15:42 | 34.96137 | 137.29282 | 14909 ft | 307 kts | 243° |
| 2026-04-22 15:42 | 34.95153 | 137.26975 | 14902 ft | 306 kts | 241° |
| 2026-04-22 15:42 | 34.94087 | 137.24726 | 14896 ft | 306 kts | 239° |
| 2026-04-22 15:43 | 34.83692 | 137.04021 | 14919 ft | 309 kts | 229° |
| 2026-04-22 15:43 | 34.82027 | 137.02352 | 14923 ft | 310 kts | 220° |
| 2026-04-22 15:43 | 34.66466 | 136.84213 | 14930 ft | 309 kts | 228° |
| 2026-04-22 15:43 | 34.65320 | 136.82062 | 14630 ft | 311 kts | 248° |
| 2026-04-22 15:44 | 34.64670 | 136.79543 | 13572 ft | 315 kts | 250° |
| 2026-04-22 15:44 | 34.63887 | 136.77039 | 12503 ft | 314 kts | 244° |
| 2026-04-22 15:44 | 34.62928 | 136.74752 | 12357 ft | 300 kts | 240° |
| 2026-04-22 15:44 | 34.61853 | 136.72550 | 12026 ft | 307 kts | 237° |
| 2026-04-22 15:45 | 34.60671 | 136.70384 | 11570 ft | 305 kts | 235° |
| 2026-04-22 15:45 | 34.59458 | 136.68298 | 11170 ft | 301 kts | 234° |
| 2026-04-22 15:45 | 34.58375 | 136.66151 | 10876 ft | 292 kts | 245° |
| 2026-04-22 15:45 | 34.57854 | 136.63882 | 10811 ft | 268 kts | 262° |
| 2026-04-22 15:46 | 34.57949 | 136.61703 | 10719 ft | 254 kts | 279° |
| 2026-04-22 15:46 | 34.58584 | 136.59719 | 10603 ft | 253 kts | 296° |
| 2026-04-22 15:46 | 34.59713 | 136.58040 | 10407 ft | 263 kts | 313° |
| 2026-04-22 15:46 | 34.61279 | 136.56856 | 10096 ft | 270 kts | 333° |
| 2026-04-22 15:47 | 34.63131 | 136.56366 | 9783 ft | 276 kts | 354° |
| 2026-04-22 15:47 | 34.65038 | 136.56665 | 9469 ft | 280 kts | 14° |
| 2026-04-22 15:47 | 34.66815 | 136.57653 | 9151 ft | 282 kts | 26° |
| 2026-04-22 15:47 | 34.68507 | 136.58858 | 8841 ft | 281 kts | 28° |
| 2026-04-22 15:48 | 34.70178 | 136.60084 | 8524 ft | 279 kts | 28° |
| 2026-04-22 15:48 | 34.71835 | 136.61291 | 8226 ft | 277 kts | 28° |
| 2026-04-22 15:48 | 34.73468 | 136.62471 | 7907 ft | 275 kts | 28° |
| 2026-04-22 15:48 | 34.75103 | 136.63647 | 7597 ft | 272 kts | 28° |
| 2026-04-22 15:49 | 34.76729 | 136.64811 | 7287 ft | 270 kts | 28° |
| 2026-04-22 15:49 | 34.78342 | 136.65965 | 6965 ft | 268 kts | 28° |
| 2026-04-22 15:49 | 34.79940 | 136.67107 | 6663 ft | 266 kts | 28° |
| 2026-04-22 15:49 | 34.81531 | 136.68244 | 6346 ft | 264 kts | 28° |
| 2026-04-22 15:50 | 34.83137 | 136.69311 | 6007 ft | 261 kts | 21° |
| 2026-04-22 15:50 | 34.84880 | 136.69784 | 5687 ft | 255 kts | 358° |
| 2026-04-22 15:50 | 34.86627 | 136.69557 | 5376 ft | 251 kts | 348° |
| 2026-04-22 15:50 | 34.88341 | 136.69147 | 5074 ft | 250 kts | 347° |
| 2026-04-22 15:51 | 34.90037 | 136.68716 | 4771 ft | 248 kts | 347° |
| 2026-04-22 15:51 | 34.91728 | 136.68284 | 4463 ft | 248 kts | 347° |
| 2026-04-22 15:51 | 34.93416 | 136.67862 | 4172 ft | 248 kts | 348° |
| 2026-04-22 15:51 | 34.95140 | 136.67686 | 3874 ft | 249 kts | 359° |
| 2026-04-22 15:52 | 34.96876 | 136.67785 | 3605 ft | 254 kts | 5° |
| 2026-04-22 15:52 | 34.98633 | 136.68378 | 3191 ft | 272 kts | 28° |
| 2026-04-22 15:52 | 34.99985 | 136.69915 | 2770 ft | 271 kts | 59° |
| 2026-04-22 15:52 | 35.00624 | 136.72028 | 2612 ft | 260 kts | 78° |
| 2026-04-22 15:53 | 35.00774 | 136.74143 | 2610 ft | 242 kts | 98° |
| 2026-04-22 15:53 | 35.00223 | 136.75982 | 2595 ft | 224 kts | 126° |
| 2026-04-22 15:53 | 34.99113 | 136.77197 | 2532 ft | 209 kts | 153° |
| 2026-04-22 15:53 | 34.97770 | 136.77758 | 2380 ft | 200 kts | 167° |
| 2026-04-22 15:54 | 34.96420 | 136.78091 | 2029 ft | 194 kts | 169° |
| 2026-04-22 15:54 | 34.95142 | 136.78368 | 1846 ft | 176 kts | 171° |
| 2026-04-22 15:54 | 34.93996 | 136.78597 | 1693 ft | 162 kts | 169° |
| 2026-04-22 15:54 | 34.92893 | 136.78836 | 1290 ft | 162 kts | 169° |
| 2026-04-22 15:55 | 34.91791 | 136.79091 | 928 ft | 158 kts | 167° |
| 2026-04-22 15:55 | 34.90749 | 136.79358 | 677 ft | 148 kts | 167° |
| 2026-04-22 15:55 | 34.89754 | 136.79632 | 414 ft | 152 kts | 169° |
| 2026-04-22 15:55 | 34.88697 | 136.79859 | 298 ft | 156 kts | 169° |
| 2026-04-22 15:56 | 34.87638 | 136.80112 | 135 ft | 154 kts | 171° |
| 2026-04-22 15:56 | 34.86589 | 136.80350 | 33 ft | 147 kts | 166° |
| 2026-04-22 15:56 | 34.85687 | 136.80574 | 24 ft | 112 kts | 168° |
| 2026-04-22 15:56 | 34.85251 | 136.80679 | 26 ft | 41 kts | 168° |
| 2026-04-22 15:57 | 34.85069 | 136.80721 | 29 ft | 25 kts | 169° |
| 2026-04-22 15:58 | 34.84957 | 136.80753 | 26 ft | 9 kts | 157° |
| 2026-04-22 15:58 | 34.84937 | 136.80772 | 30 ft | 1 kts | 134° |
| 2026-04-22 15:58 | 34.84925 | 136.80806 | 29 ft | 9 kts | 103° |
| 2026-04-22 15:58 | 34.84933 | 136.80892 | 28 ft | 12 kts | 78° |
| 2026-04-22 15:59 | 34.84949 | 136.80995 | 25 ft | 11 kts | 78° |
| 2026-04-22 15:59 | 34.84983 | 136.81076 | 26 ft | 10 kts | 34° |
| 2026-04-22 15:59 | 34.85054 | 136.81084 | 24 ft | 11 kts | 349° |
| 2026-04-22 15:59 | 34.85136 | 136.81064 | 24 ft | 14 kts | 348° |
| 2026-04-22 16:00 | 34.85217 | 136.81043 | 26 ft | 14 kts | 348° |
| 2026-04-22 16:01 | 34.85323 | 136.81018 | 23 ft | 17 kts | 349° |
| 2026-04-22 16:01 | 34.85443 | 136.80990 | 23 ft | 19 kts | 349° |
| 2026-04-22 16:01 | 34.85578 | 136.80959 | 25 ft | 21 kts | 349° |
| 2026-04-22 16:01 | 34.85724 | 136.80929 | 24 ft | 19 kts | 348° |
| 2026-04-22 16:02 | 34.85800 | 136.80908 | 24 ft | 12 kts | 347° |
| 2026-04-22 16:02 | 34.85842 | 136.80896 | 24 ft | 1 kts | 347° |
| 2026-04-22 16:02 | 34.85858 | 136.80891 | 27 ft | 4 kts | 346° |
| 2026-04-22 16:02 | 34.85894 | 136.80880 | 27 ft | 7 kts | 345° |
| 2026-04-22 16:03 | 34.85932 | 136.80867 | 25 ft | 0 kts | 343° |
| 2026-04-22 16:03 | 34.85948 | 136.80864 | 27 ft | 5 kts | 359° |
| 2026-04-22 16:03 | 34.85983 | 136.80880 | 25 ft | 3 kts | 25° |
| 2026-04-22 16:03 | 34.86003 | 136.80900 | 24 ft | 2 kts | 52° |
| 2026-04-22 16:04 | 34.86001 | 136.80910 | 27 ft | 1 kts | 99° |
| 2026-04-22 16:04 | 34.85989 | 136.80921 | 25 ft | 4 kts | 143° |
| 2026-04-22 16:04 | 34.85944 | 136.80952 | 26 ft | 9 kts | 150° |
| 2026-04-22 16:04 | 34.85898 | 136.80987 | 27 ft | 0 kts | 148° |